Time;durP1;ratioP1;P1;durP2;ratioP2;P2;SDS_P1;SDS_P2;PMS_P1;PMS_P2;Temp;Humidity;BMP_temperature;BMP_pressure;BME280_temperature;BME280_humidity;BME280_pressure;Samples;Min_cycle;Max_cycle;Signal;HPM_P1;HPM_P2
2022/05/14 00:01:18;;;;;;;8.68;2.65;;;;;;;13.05;67.06;101063.06;5028183;28;20050;-50
2022/05/14 00:03:47;;;;;;;6.05;2.47;;;;;;;13.01;67.14;101061.56;5013798;28;20053;-47
2022/05/14 00:06:17;;;;;;;8.43;2.83;;;;;;;12.99;66.94;101054.69;5008187;28;20050;-53
2022/05/14 00:08:45;;;;;;;5.13;2.55;;;;;;;12.95;67.73;101061.94;5011092;28;20046;-48
2022/05/14 00:13:58;;;;;;;5.88;2.70;;;;;;;12.88;67.89;101066.78;5011088;28;20072;-50
2022/05/14 00:16:26;;;;;;;12.23;3.75;;;;;;;12.88;68.01;101063.28;5008074;28;20053;-48
2022/05/14 00:18:53;;;;;;;10.07;3.25;;;;;;;12.86;67.99;101057.25;5009592;28;20053;-53
2022/05/14 00:21:21;;;;;;;5.55;2.80;;;;;;;12.84;68.49;101056.50;5020321;28;20061;-52
2022/05/14 00:23:48;;;;;;;6.65;2.70;;;;;;;12.83;68.48;101054.78;5019071;28;20085;-50
2022/05/14 00:26:16;;;;;;;12.35;3.13;;;;;;;12.83;68.33;101052.13;5020025;28;20525;-53
2022/05/14 00:28:43;;;;;;;9.70;3.22;;;;;;;12.81;68.25;101052.22;5018086;28;20073;-54
2022/05/14 00:31:10;;;;;;;11.50;2.83;;;;;;;12.81;68.49;101049.59;5024216;28;20108;-49
2022/05/14 00:33:37;;;;;;;8.05;3.00;;;;;;;12.79;68.65;101045.34;5018602;28;20065;-49
2022/05/14 00:36:05;;;;;;;9.02;2.85;;;;;;;12.77;68.56;101052.53;5008624;28;20050;-51
2022/05/14 00:38:32;;;;;;;7.07;2.83;;;;;;;12.73;68.84;101048.38;5013844;28;20046;-51
2022/05/14 00:41:02;;;;;;;11.95;3.35;;;;;;;12.72;69.26;101052.81;5011190;28;20064;-48
2022/05/14 00:43:30;;;;;;;7.05;2.80;;;;;;;12.68;69.11;101046.84;5015847;28;20061;-52
2022/05/14 00:46:16;;;;;;;8.60;2.78;;;;;;;12.66;68.95;101051.38;5012505;28;20060;-53
2022/05/14 00:48:45;;;;;;;8.65;3.15;;;;;;;12.62;69.63;101049.88;5015341;28;20054;-50
2022/05/14 00:51:15;;;;;;;11.68;3.20;;;;;;;12.60;69.46;101058.81;5012346;28;20625;-49
2022/05/14 00:53:46;;;;;;;10.77;3.30;;;;;;;12.58;70.00;101047.50;5012633;28;20137;-51
2022/05/14 00:56:15;;;;;;;8.40;2.85;;;;;;;12.61;69.80;101050.81;5000877;28;20126;-50
2022/05/14 00:58:53;;;;;;;11.05;3.60;;;;;;;12.63;69.86;101059.50;5008035;28;20057;-51
2022/05/14 01:01:20;;;;;;;12.75;2.95;;;;;;;12.68;69.64;101060.06;5016367;28;20046;-53
2022/05/14 01:03:47;;;;;;;7.15;3.13;;;;;;;12.68;69.54;101057.41;5010934;28;20058;-52
2022/05/14 01:06:16;;;;;;;9.80;3.08;;;;;;;12.71;69.84;101052.91;5015922;28;20196;-53
2022/05/14 01:08:44;;;;;;;12.65;3.50;;;;;;;12.73;69.91;101059.78;5028990;28;20050;-55
2022/05/14 01:11:18;;;;;;;8.43;2.92;;;;;;;12.76;69.78;101058.75;5008635;28;20050;-57
2022/05/14 01:13:45;;;;;;;7.57;2.65;;;;;;;12.77;69.90;101056.00;5002091;28;20045;-53
2022/05/14 01:16:12;;;;;;;9.93;3.13;;;;;;;12.75;70.31;101057.91;5000792;28;20054;-54
2022/05/14 01:18:39;;;;;;;7.30;2.75;;;;;;;12.73;69.81;101056.28;5008860;28;20057;-53
2022/05/14 01:21:15;;;;;;;8.88;3.00;;;;;;;12.75;69.68;101057.91;5014971;28;20072;-52
2022/05/14 01:26:35;;;;;;;7.85;2.63;;;;;;;12.75;69.79;101057.06;5013190;28;19921;-54
2022/05/14 01:29:12;;;;;;;7.10;2.65;;;;;;;12.75;69.95;101062.34;5005723;28;20057;-49
2022/05/14 01:31:39;;;;;;;8.20;3.20;;;;;;;12.73;70.24;101058.94;5021662;28;20072;-50
2022/05/14 01:34:10;;;;;;;7.03;2.67;;;;;;;12.73;70.18;101058.94;5013998;28;20054;-53
2022/05/14 01:36:38;;;;;;;9.20;4.70;;;;;;;12.73;70.00;101057.13;5024165;28;20136;-49
2022/05/14 01:39:06;;;;;;;7.97;3.25;;;;;;;12.75;70.00;101051.78;5000401;28;20050;-49
2022/05/14 01:41:33;;;;;;;8.70;3.53;;;;;;;12.76;70.51;101051.69;5006480;28;20046;-49
2022/05/14 01:44:00;;;;;;;10.63;3.58;;;;;;;12.76;70.22;101051.69;5007596;28;20055;-50
2022/05/14 01:46:28;;;;;;;12.85;4.07;;;;;;;12.74;70.22;101042.97;5007057;28;20426;-49
2022/05/14 01:48:55;;;;;;;7.07;2.67;;;;;;;12.75;70.37;101052.63;5007905;28;21017;-52
2022/05/14 01:51:22;;;;;;;7.90;3.35;;;;;;;12.75;70.56;101049.97;5005624;28;20076;-51
2022/05/14 01:53:51;;;;;;;6.45;2.78;;;;;;;12.76;70.51;101058.75;5004177;28;20050;-49
2022/05/14 01:56:18;;;;;;;10.13;3.30;;;;;;;12.76;70.49;101062.25;5012034;28;20041;-52
2022/05/14 01:58:46;;;;;;;12.23;3.20;;;;;;;12.76;70.27;101064.03;5009974;28;20073;-50
2022/05/14 02:01:21;;;;;;;9.13;3.33;;;;;;;12.77;70.52;101058.66;5001079;28;20479;-48
2022/05/14 02:03:49;;;;;;;;;;;;;;;12.77;70.40;101048.09;5006363;28;20049;-49
2022/05/14 02:06:17;;;;;;;10.73;3.92;;;;;;;12.77;70.78;101052.53;5005429;28;19921;-52
2022/05/14 02:08:44;;;;;;;10.75;3.63;;;;;;;12.68;70.62;101062.69;5003730;28;20072;-51
2022/05/14 02:11:13;;;;;;;10.68;3.63;;;;;;;12.70;70.92;101059.09;5006269;28;20054;-51
2022/05/14 02:13:41;;;;;;;12.48;3.67;;;;;;;12.68;70.81;101062.69;5009401;28;20077;-54
2022/05/14 02:16:08;;;;;;;8.13;3.13;;;;;;;12.68;70.57;101059.22;5006878;28;20411;-51
2022/05/14 02:18:36;;;;;;;6.32;3.13;;;;;;;12.67;70.60;101061.00;5006894;28;20064;-53
2022/05/14 02:21:04;;;;;;;13.25;3.75;;;;;;;12.69;70.78;101055.63;5013053;28;20050;-53
2022/05/14 02:23:32;;;;;;;8.55;3.13;;;;;;;12.68;70.35;101054.78;5011449;28;20061;-52
2022/05/14 02:25:59;;;;;;;6.65;3.40;;;;;;;12.69;70.38;101045.06;5010585;28;20050;-49
2022/05/14 02:28:26;;;;;;;10.20;3.17;;;;;;;12.70;70.10;101064.38;5007971;28;20391;-51
2022/05/14 02:30:53;;;;;;;7.15;3.25;;;;;;;12.71;70.06;101063.47;5011532;28;20455;-49
2022/05/14 02:33:25;;;;;;;13.52;3.90;;;;;;;12.70;69.96;101057.34;5010606;28;20050;-49
2022/05/14 02:35:52;;;;;;;13.48;3.22;;;;;;;12.71;69.83;101072.25;5018822;28;20061;-51
2022/05/14 02:38:19;;;;;;;9.55;3.10;;;;;;;12.73;69.97;101061.56;5011459;28;20057;-51
2022/05/14 02:40:47;;;;;;;12.48;3.17;;;;;;;12.75;69.35;101070.28;5011579;28;20065;-49
2022/05/14 02:43:14;;;;;;;7.03;3.03;;;;;;;12.75;69.37;101059.69;5011810;28;20058;-48
2022/05/14 02:45:41;;;;;;;8.65;2.92;;;;;;;12.75;68.96;101064.97;5009718;28;20157;-49
2022/05/14 02:48:10;;;;;;;6.32;2.63;;;;;;;12.73;69.05;101066.84;5014479;28;20041;-52
2022/05/14 02:50:38;;;;;;;10.75;3.40;;;;;;;12.74;69.11;101066.75;5011900;28;20083;-52
2022/05/14 02:53:05;;;;;;;8.93;2.80;;;;;;;12.75;68.96;101070.28;5010626;28;20132;-51
2022/05/14 02:55:32;;;;;;;8.15;2.65;;;;;;;12.74;68.91;101061.47;5005766;28;20525;-50
2022/05/14 02:58:00;;;;;;;11.30;3.22;;;;;;;12.71;68.40;101059.03;5010321;28;20470;-48
2022/05/14 03:00:27;;;;;;;8.18;2.97;;;;;;;12.72;68.42;101051.97;5009506;28;20057;-48
2022/05/14 03:02:54;;;;;;;4.97;2.75;;;;;;;12.74;68.04;101056.19;5014619;28;20470;-49
2022/05/14 03:05:23;;;;;;;11.43;3.22;;;;;;;12.72;68.21;101052.81;5014001;28;20102;-51
2022/05/14 03:07:50;;;;;;;13.18;3.88;;;;;;;12.70;68.18;101056.47;5012664;28;20046;-54
2022/05/14 03:10:17;;;;;;;9.45;2.50;;;;;;;12.67;68.29;101068.94;5018403;28;20482;-49
2022/05/14 03:12:44;;;;;;;9.25;2.75;;;;;;;12.66;68.82;101061.09;5008607;28;20077;-54
2022/05/14 03:15:12;;;;;;;12.07;3.45;;;;;;;12.63;68.57;101062.13;5002289;28;20057;-49
2022/05/14 03:17:40;;;;;;;12.13;3.10;;;;;;;12.58;68.86;101055.44;5009560;28;20054;-53
2022/05/14 03:20:10;;;;;;;7.55;2.78;;;;;;;12.55;69.17;101059.09;5011033;28;20084;-50
2022/05/14 03:22:39;;;;;;;6.90;2.90;;;;;;;12.52;69.13;101059.31;5016986;28;20057;-52
2022/05/14 03:25:07;;;;;;;5.75;2.78;;;;;;;12.47;69.79;101060.50;5012454;28;20054;-51
2022/05/14 03:27:34;;;;;;;13.02;3.90;;;;;;;12.43;69.66;101065.13;5017156;28;20049;-53
2022/05/14 03:30:01;;;;;;;11.90;3.85;;;;;;;12.38;70.48;101069.81;5015363;28;20053;-51
2022/05/14 03:32:28;;;;;;;8.52;3.13;;;;;;;12.35;70.61;101057.66;5009088;28;20046;-50
2022/05/14 03:34:57;;;;;;;4.85;2.50;;;;;;;12.34;70.70;101063.03;5022060;28;20348;-49
2022/05/14 03:37:24;;;;;;;11.63;3.08;;;;;;;12.33;70.31;101058.69;5015183;28;20392;-52
2022/05/14 03:39:51;;;;;;;8.00;3.15;;;;;;;12.30;70.83;101070.28;5016615;28;20057;-51
2022/05/14 03:42:19;;;;;;;8.05;2.47;;;;;;;12.31;70.61;101069.34;5014054;28;20050;-52
2022/05/14 03:44:48;;;;;;;8.20;2.72;;;;;;;12.30;70.64;101074.72;5007714;28;20065;-47
2022/05/14 03:47:15;;;;;;;9.02;3.28;;;;;;;12.27;70.81;101070.47;5010748;28;20516;-49
2022/05/14 03:49:43;;;;;;;7.60;3.17;;;;;;;12.30;71.13;101064.16;5018856;28;20502;-51
2022/05/14 03:52:11;;;;;;;15.57;3.47;;;;;;;12.30;71.09;101061.53;5012201;28;20556;-50
2022/05/14 03:54:38;;;;;;;10.85;2.90;;;;;;;12.24;71.81;101060.06;5008133;28;20372;-51
2022/05/14 03:57:06;;;;;;;8.63;3.10;;;;;;;12.23;71.42;101061.03;5007585;28;20423;-54
2022/05/14 03:59:34;;;;;;;6.13;2.75;;;;;;;12.24;71.44;101059.22;5013736;28;20077;-50
2022/05/14 04:02:03;;;;;;;11.10;3.50;;;;;;;12.24;71.80;101053.94;5002765;28;20058;-50
2022/05/14 04:04:30;;;;;;;10.85;3.25;;;;;;;12.22;71.94;101054.03;5008543;28;20474;-48
2022/05/14 04:06:58;;;;;;;9.82;3.05;;;;;;;12.20;71.98;101058.53;5007960;28;20566;-49
2022/05/14 04:09:26;;;;;;;8.55;3.00;;;;;;;12.19;71.96;101053.38;5006237;28;20057;-49
2022/05/14 04:11:53;;;;;;;9.50;3.22;;;;;;;12.19;72.25;101056.00;5006155;28;20050;-49
2022/05/14 04:14:21;;;;;;;7.95;2.63;;;;;;;12.19;71.88;101069.22;5007609;28;20046;-48
2022/05/14 04:16:49;;;;;;;10.80;3.15;;;;;;;12.22;72.04;101058.47;5005476;28;20478;-47
2022/05/14 04:19:19;;;;;;;11.05;2.85;;;;;;;12.21;72.10;101067.34;5007003;28;20062;-49
2022/05/14 04:21:46;;;;;;;7.15;2.75;;;;;;;12.21;72.19;101070.84;5006104;28;20064;-53
2022/05/14 04:24:14;;;;;;;12.35;3.47;;;;;;;12.28;72.02;101068.66;5002551;28;20062;-52
2022/05/14 04:26:42;;;;;;;9.60;2.70;;;;;;;12.33;71.98;101071.88;5006880;28;20471;-53
2022/05/14 04:29:09;;;;;;;9.40;2.80;;;;;;;12.35;71.29;101070.00;5006599;28;20667;-49
2022/05/14 04:31:37;;;;;;;10.10;3.45;;;;;;;12.36;71.56;101074.34;5002337;28;20435;-52
2022/05/14 04:34:04;;;;;;;9.93;3.50;;;;;;;12.39;71.28;101072.38;5008246;28;20638;-50
2022/05/14 04:36:31;;;;;;;5.40;2.40;;;;;;;12.44;71.58;101066.81;5007739;28;20058;-51
2022/05/14 04:38:58;;;;;;;11.05;3.70;;;;;;;12.46;71.19;101064.94;5006091;28;20046;-52
2022/05/14 04:41:30;;;;;;;11.07;3.33;;;;;;;12.44;70.97;101073.91;5007147;28;20116;-51
2022/05/14 04:43:58;;;;;;;15.55;3.63;;;;;;;12.44;71.15;101066.81;5008561;28;20050;-51
2022/05/14 04:46:26;;;;;;;12.93;3.42;;;;;;;12.48;71.29;101072.78;5015849;28;20065;-52
2022/05/14 04:48:53;;;;;;;7.43;3.42;;;;;;;12.48;70.92;101065.72;5011080;28;20523;-49
2022/05/14 04:51:21;;;;;;;8.82;3.08;;;;;;;12.53;70.80;101066.28;5009139;28;20065;-49
2022/05/14 04:53:48;;;;;;;11.63;3.33;;;;;;;12.57;70.33;101069.59;5004462;28;20414;-49
2022/05/14 04:56:15;;;;;;;10.77;3.75;;;;;;;12.64;70.52;101069.09;5007395;28;20416;-51
2022/05/14 04:58:42;;;;;;;16.05;2.90;;;;;;;12.72;70.74;101086.28;5007935;28;20060;-56
2022/05/14 05:01:09;;;;;;;12.40;3.70;;;;;;;12.78;69.98;101078.00;5009863;28;20049;-54
2022/05/14 05:03:37;;;;;;;9.30;3.45;;;;;;;12.76;69.71;101087.81;5001894;28;20037;-52
2022/05/14 05:06:04;;;;;;;12.00;3.58;;;;;;;12.82;69.62;101098.84;5006567;28;20165;-51
2022/05/14 05:08:32;;;;;;;11.13;3.10;;;;;;;12.85;68.69;101088.09;5006978;28;20482;-52
2022/05/14 05:11:00;;;;;;;10.65;3.15;;;;;;;12.90;68.56;101088.66;5005531;28;20391;-50
2022/05/14 05:13:29;;;;;;;11.43;3.17;;;;;;;13.00;68.61;101085.44;5007511;28;20050;-52
2022/05/14 05:15:57;;;;;;;11.00;2.65;;;;;;;13.07;68.07;101092.06;4999274;28;20062;-51
2022/05/14 05:18:24;;;;;;;10.52;3.00;;;;;;;13.16;67.94;101084.41;5004961;28;20046;-49
2022/05/14 05:20:54;;;;;;;8.32;3.30;;;;;;;13.10;67.25;101099.78;5005217;28;20061;-53
2022/05/14 05:23:22;;;;;;;9.80;3.42;;;;;;;13.17;67.47;101099.31;5008314;28;20054;-51
2022/05/14 05:25:50;;;;;;;5.88;2.88;;;;;;;13.28;67.30;101106.59;5002362;28;20050;-53
2022/05/14 05:28:18;;;;;;;11.85;3.45;;;;;;;13.31;66.53;101103.78;5008186;28;20118;-51
2022/05/14 05:30:45;;;;;;;11.45;3.83;;;;;;;13.29;66.79;101107.50;5005149;28;20977;-53
2022/05/14 05:33:20;;;;;;;10.50;3.40;;;;;;;13.37;66.42;101111.34;5009054;28;20534;-49
2022/05/14 05:35:47;;;;;;;11.15;3.90;;;;;;;13.40;65.89;101111.13;5007168;28;21747;-56
2022/05/14 05:38:14;;;;;;;7.80;2.65;;;;;;;13.47;66.18;101108.97;5008174;28;20042;-53
2022/05/14 05:40:42;;;;;;;9.65;2.95;;;;;;;13.43;65.72;101115.41;5006473;28;20490;-52
2022/05/14 05:43:10;;;;;;;12.38;3.13;;;;;;;13.50;65.49;101111.41;5005807;28;20060;-51
2022/05/14 05:45:40;;;;;;;11.60;3.42;;;;;;;13.48;65.38;101110.66;5003395;28;20068;-50
2022/05/14 05:48:10;;;;;;;16.23;3.28;;;;;;;13.55;65.27;101109.31;5006471;28;20048;-51
2022/05/14 05:50:38;;;;;;;13.38;3.83;;;;;;;13.68;65.05;101115.50;5003230;28;20077;-50
2022/05/14 05:53:06;;;;;;;9.98;3.22;;;;;;;13.74;64.51;101116.09;5004966;28;20049;-54
2022/05/14 05:58:20;;;;;;;11.43;3.45;;;;;;;13.89;63.82;101117.75;5008638;28;20145;-49
2022/05/14 06:00:47;;;;;;;13.32;3.35;;;;;;;13.99;63.90;101121.47;5000677;28;20076;-50
2022/05/14 06:03:15;;;;;;;13.90;3.50;;;;;;;14.08;63.86;101109.44;5005283;28;20054;-52
2022/05/14 06:05:42;;;;;;;11.18;4.07;;;;;;;14.31;62.66;101110.56;5002467;28;20394;-53
2022/05/14 06:08:14;;;;;;;9.55;3.00;;;;;;;14.31;62.46;101119.34;5006636;28;20045;-53
2022/05/14 06:10:42;;;;;;;11.68;3.30;;;;;;;14.42;62.68;101121.31;5004586;28;20050;-52
2022/05/14 06:13:10;;;;;;;15.10;3.83;;;;;;;14.44;61.81;101114.94;5007035;28;20057;-54
2022/05/14 06:15:39;;;;;;;7.82;2.70;;;;;;;14.48;61.94;101125.34;5006637;28;20053;-51
2022/05/14 06:18:07;;;;;;;9.07;2.65;;;;;;;14.47;61.81;101119.19;5008013;28;20045;-48
2022/05/14 06:20:37;;;;;;;9.65;3.35;;;;;;;14.43;61.93;101126.50;5005800;28;20056;-51
2022/05/14 06:23:05;;;;;;;14.93;3.47;;;;;;;14.19;62.09;101136.91;5004229;28;20061;-55
2022/05/14 06:25:32;;;;;;;11.77;2.90;;;;;;;14.17;62.54;101138.81;5005029;28;20136;-51
2022/05/14 06:27:59;;;;;;;10.23;3.45;;;;;;;14.21;62.48;101134.16;5006342;28;20056;-55
2022/05/14 06:30:26;;;;;;;10.75;3.25;;;;;;;14.18;62.86;101134.34;5004619;28;20149;-50
2022/05/14 06:32:53;;;;;;;18.25;3.50;;;;;;;14.28;63.01;101132.81;5007303;28;20468;-54
2022/05/14 06:35:21;;;;;;;11.82;3.75;;;;;;;14.42;62.55;101132.75;5006707;28;20050;-51
2022/05/14 06:37:48;;;;;;;13.35;3.63;;;;;;;14.46;62.50;101135.19;4997342;28;20055;-52
2022/05/14 06:40:15;;;;;;;13.27;3.42;;;;;;;14.54;62.36;101127.59;5004501;28;20425;-51
2022/05/14 06:42:42;;;;;;;17.45;3.88;;;;;;;14.67;61.62;101139.06;5006001;28;20053;-53
2022/05/14 06:45:10;;;;;;;13.75;3.92;;;;;;;14.81;61.27;101143.41;5003160;28;20054;-52
2022/05/14 06:47:37;;;;;;;11.32;3.55;;;;;;;14.75;61.34;101143.84;5005929;28;20068;-53
2022/05/14 06:50:05;;;;;;;12.05;3.33;;;;;;;14.72;61.62;101141.41;5008208;28;20054;-53
2022/05/14 06:52:33;;;;;;;10.02;3.88;;;;;;;14.75;61.80;101138.53;5006267;28;20049;-49
2022/05/14 06:55:00;;;;;;;15.80;3.10;;;;;;;14.94;61.78;101146.94;5006099;28;20050;-53
2022/05/14 06:57:29;;;;;;;15.77;3.97;;;;;;;14.90;62.22;101148.09;5005186;28;20451;-54
2022/05/14 06:59:56;;;;;;;11.50;3.22;;;;;;;14.96;62.52;101144.19;5012183;28;20052;-51
2022/05/14 07:02:25;;;;;;;14.13;4.00;;;;;;;15.18;61.84;101149.69;5001225;28;20074;-50
2022/05/14 07:07:38;;;;;;;16.45;3.55;;;;;;;15.52;60.97;101148.16;5007365;28;20124;-54
2022/05/14 07:10:06;;;;;;;8.90;3.30;;;;;;;15.30;61.29;101150.63;5009315;28;20121;-50
2022/05/14 07:12:33;;;;;;;12.23;3.53;;;;;;;15.40;61.20;101147.25;5008682;28;20065;-50
2022/05/14 07:15:01;;;;;;;12.55;3.83;;;;;;;15.48;61.04;101141.38;5006812;28;20062;-50
2022/05/14 07:17:29;;;;;;;8.35;3.25;;;;;;;15.49;61.59;101155.47;5006941;28;20046;-52
2022/05/14 07:19:56;;;;;;;15.65;3.58;;;;;;;15.58;61.55;101150.38;5011124;28;20033;-53
2022/05/14 07:22:23;;;;;;;13.68;3.22;;;;;;;15.63;61.26;101152.72;5025256;28;20068;-51
2022/05/14 07:24:50;;;;;;;19.88;4.25;;;;;;;15.93;60.86;101158.47;5008092;28;20461;-49
2022/05/14 07:27:17;;;;;;;22.73;5.32;;;;;;;15.54;61.04;101153.38;5011732;28;20073;-52
2022/05/14 07:29:45;;;;;;;7.70;3.13;;;;;;;15.73;60.87;101150.28;5013727;28;20123;-52
2022/05/14 07:32:16;;;;;;;13.32;3.63;;;;;;;15.91;60.37;101157.75;5001853;28;20058;-50
2022/05/14 07:34:43;;;;;;;13.63;4.10;;;;;;;15.94;60.11;101140.75;5005223;28;20534;-52
2022/05/14 07:37:20;;;;;;;11.20;3.72;;;;;;;15.90;60.55;101150.75;4999779;28;20057;-47
2022/05/14 07:39:56;;;;;;;14.82;3.58;;;;;;;16.00;60.28;101131.47;5023850;28;20046;-55
2022/05/14 07:42:27;;;;;;;9.50;3.72;;;;;;;16.30;59.59;101137.19;5000967;28;20073;-52
2022/05/14 07:44:57;;;;;;;17.02;3.83;;;;;;;16.37;59.17;101133.09;5008359;28;20054;-48
2022/05/14 07:47:26;;;;;;;9.07;3.42;;;;;;;16.48;58.81;101128.75;5009121;28;20304;-46
2022/05/14 07:49:53;;;;;;;9.45;3.42;;;;;;;16.68;58.44;101131.59;5006262;28;20057;-49
2022/05/14 07:52:21;;;;;;;11.95;4.03;;;;;;;16.72;58.46;101132.25;5005543;28;20050;-51
2022/05/14 07:54:48;;;;;;;8.02;3.88;;;;;;;17.06;58.08;101138.47;5010324;28;20053;-51
2022/05/14 07:57:18;;;;;;;10.30;3.45;;;;;;;17.17;57.29;101122.53;5017493;28;20454;-55
2022/05/14 07:59:46;;;;;;;13.75;3.70;;;;;;;17.27;56.84;101140.41;5018736;28;20048;-55
2022/05/14 08:02:31;;;;;;;11.18;3.92;;;;;;;17.08;57.46;101130.38;5008771;28;20058;-50
2022/05/14 08:05:01;;;;;;;;;;;;;;;17.03;57.80;101138.72;4992675;28;20061;-48
2022/05/14 08:07:29;;;;;;;18.75;4.40;;;;;;;17.12;56.57;101140.66;5007958;28;20429;-51
2022/05/14 08:09:58;;;;;;;15.95;3.95;;;;;;;17.09;56.91;101140.03;5005363;28;20493;-46
2022/05/14 08:12:26;;;;;;;11.85;3.80;;;;;;;17.17;57.00;101140.31;5005001;28;20060;-48
2022/05/14 08:14:53;;;;;;;17.88;4.03;;;;;;;17.33;56.11;101150.56;4998784;28;20053;-51
2022/05/14 08:17:20;;;;;;;11.73;3.38;;;;;;;17.17;56.13;101137.63;5007803;28;20053;-54
2022/05/14 08:19:48;;;;;;;10.10;3.65;;;;;;;17.04;56.26;101137.75;5006111;28;20050;-49
2022/05/14 08:25:00;;;;;;;14.57;3.92;;;;;;;17.29;55.75;101142.00;4993025;28;20553;-48
2022/05/14 08:27:27;;;;;;;9.15;3.58;;;;;;;17.40;55.30;101143.81;5004878;28;20049;-50
2022/05/14 08:29:54;;;;;;;16.17;4.68;;;;;;;17.09;55.99;101140.88;5006653;28;20064;-49
2022/05/14 08:32:22;;;;;;;8.90;3.40;;;;;;;17.23;55.76;101149.59;5005973;28;20076;-50
2022/05/14 08:34:50;;;;;;;13.55;3.47;;;;;;;17.40;55.57;101141.13;5000079;28;20060;-47
2022/05/14 08:37:17;;;;;;;14.95;3.80;;;;;;;17.52;55.47;101136.66;5005753;28;20057;-51
2022/05/14 08:39:45;;;;;;;13.68;4.53;;;;;;;17.67;55.33;101135.44;5006124;28;20064;-48
2022/05/14 08:42:12;;;;;;;10.15;3.55;;;;;;;18.01;54.43;101128.22;5005626;28;20065;-54
2022/05/14 08:44:40;;;;;;;11.68;3.53;;;;;;;18.24;53.83;101126.34;5008039;28;20054;-51
2022/05/14 08:47:24;;;;;;;16.58;3.58;;;;;;;18.03;53.33;101128.94;5005917;28;20053;-48
2022/05/14 08:49:53;;;;;;;15.85;4.32;;;;;;;18.03;52.98;101120.97;5003219;28;20192;-49
2022/05/14 08:52:22;;;;;;;10.35;3.60;;;;;;;18.01;52.15;101122.88;5004905;28;20054;-51
2022/05/14 08:54:53;;;;;;;14.13;3.40;;;;;;;18.17;52.69;101119.81;5004924;28;20050;-47
2022/05/14 08:57:26;;;;;;;12.45;2.83;;;;;;;18.35;51.13;101109.44;5010659;28;20076;-53
2022/05/14 08:59:57;;;;;;;10.27;2.97;;;;;;;18.59;51.03;101136.69;5005852;28;20053;-49
2022/05/14 09:02:32;;;;;;;15.50;4.07;;;;;;;18.31;50.69;101129.31;5020044;28;20153;-54
2022/05/14 09:05:08;;;;;;;14.18;3.83;;;;;;;18.07;50.58;101126.88;5006357;28;20076;-46
2022/05/14 09:07:36;;;;;;;9.85;3.33;;;;;;;18.09;51.39;101115.09;5008156;28;20058;-49
2022/05/14 09:10:09;;;;;;;11.05;3.55;;;;;;;18.06;51.36;101118.06;5006447;28;20060;-53
2022/05/14 09:12:49;;;;;;;11.23;3.55;;;;;;;17.98;51.45;101117.84;5002553;28;20053;-51
2022/05/14 09:15:16;;;;;;;19.45;4.25;;;;;;;18.02;51.63;101111.28;5009719;28;20060;-50
2022/05/14 09:17:44;;;;;;;10.88;3.75;;;;;;;18.14;51.74;101120.06;5005524;28;20467;-50
2022/05/14 09:20:22;;;;;;;13.43;3.20;;;;;;;18.24;51.99;101118.34;5014349;28;20038;-57
2022/05/14 09:22:55;;;;;;;18.90;3.50;;;;;;;18.21;51.71;101123.91;5008159;28;20073;-48
2022/05/14 09:25:27;;;;;;;11.35;3.95;;;;;;;18.61;50.78;101125.91;5010484;28;20499;-50
2022/05/14 09:27:58;;;;;;;13.77;3.63;;;;;;;18.67;49.69;101139.56;5007963;28;20052;-48
2022/05/14 09:30:29;;;;;;;13.45;3.30;;;;;;;18.71;49.30;101119.69;5005069;28;20812;-51
2022/05/14 09:32:56;;;;;;;14.90;3.83;;;;;;;18.62;48.54;101123.09;5008998;28;20052;-49
2022/05/14 09:35:26;;;;;;;12.50;3.63;;;;;;;18.67;48.19;101128.88;5014212;28;20171;-59
2022/05/14 09:38:18;;;;;;;15.73;3.60;;;;;;;18.88;47.37;101120.06;5010269;28;20053;-53
2022/05/14 09:40:52;;;;;;;13.57;3.22;;;;;;;19.06;47.34;101122.97;5003633;28;21391;-49
2022/05/14 09:43:19;;;;;;;17.33;3.83;;;;;;;19.02;46.94;101133.06;5005021;28;20064;-48
2022/05/14 09:46:02;;;;;;;10.40;3.05;;;;;;;19.02;46.23;101146.41;5003701;28;20054;-56
2022/05/14 09:48:36;;;;;;;13.60;3.30;;;;;;;18.90;44.95;101118.94;5003704;28;20061;-52
2022/05/14 09:51:08;;;;;;;9.75;2.58;;;;;;;18.84;43.55;101121.31;4998398;28;20045;-48
2022/05/14 09:53:41;;;;;;;16.33;4.03;;;;;;;18.62;43.92;101119.59;5001537;28;20068;-56
2022/05/14 09:56:30;;;;;;;8.05;2.80;;;;;;;18.62;44.45;101127.59;4997537;28;20061;-54
2022/05/14 09:59:18;;;;;;;14.90;3.17;;;;;;;18.60;42.93;101143.72;4998103;28;20053;-54
2022/05/14 10:01:58;;;;;;;12.00;3.42;;;;;;;18.23;43.34;101124.63;5003499;28;20054;-50
2022/05/14 10:04:59;;;;;;;14.57;3.20;;;;;;;18.13;43.45;101127.22;4986845;28;20046;-51
2022/05/14 10:07:36;;;;;;;15.52;3.65;;;;;;;18.05;43.21;101119.00;5005113;28;20062;-52
2022/05/14 10:10:20;;;;;;;23.00;3.67;;;;;;;18.12;43.29;101124.69;4996033;28;20065;-59
2022/05/14 10:12:52;;;;;;;12.35;3.05;;;;;;;18.32;43.27;101129.19;5008861;28;20049;-56
2022/05/14 10:15:32;;;;;;;8.48;2.78;;;;;;;18.68;42.95;101119.91;5002014;28;20057;-54
2022/05/14 10:18:17;;;;;;;9.02;2.50;;;;;;;18.77;42.32;101136.13;5004772;28;20057;-53
2022/05/14 10:20:57;;;;;;;12.30;3.28;;;;;;;18.80;41.53;101126.06;5002956;28;20053;-57
2022/05/14 10:27:06;;;;;;;12.48;3.15;;;;;;;19.55;41.74;101122.19;5001257;28;20054;-56
2022/05/14 10:29:57;;;;;;;14.10;2.97;;;;;;;19.42;41.08;101121.56;5005012;28;20115;-57
2022/05/14 10:32:29;;;;;;;16.10;3.42;;;;;;;19.17;41.61;101129.06;5003701;28;20045;-58
2022/05/14 10:35:39;;;;;;;11.32;3.47;;;;;;;19.22;41.44;101137.50;4994554;28;20054;-58
2022/05/14 10:38:11;;;;;;;10.70;3.55;;;;;;;19.33;40.68;101125.06;4988699;28;20430;-54
2022/05/14 10:40:47;;;;;;;12.73;3.58;;;;;;;19.43;40.81;101131.28;5000197;28;20049;-54
2022/05/14 10:43:33;;;;;;;11.90;3.53;;;;;;;19.57;40.23;101122.03;5005004;28;20538;-57
2022/05/14 10:46:07;;;;;;;10.77;3.22;;;;;;;19.63;40.57;101121.50;5002808;28;20038;-55
2022/05/14 10:48:56;;;;;;;18.33;3.15;;;;;;;19.49;40.58;101125.38;5004366;28;20608;-56
2022/05/14 10:51:25;;;;;;;15.00;3.75;;;;;;;19.45;40.72;101131.97;5001507;28;20066;-52
2022/05/14 10:53:53;;;;;;;13.40;3.38;;;;;;;19.14;41.55;101121.34;5009942;28;20077;-56
2022/05/14 10:56:29;;;;;;;12.80;4.15;;;;;;;19.87;40.96;101113.97;5007098;28;20556;-59
2022/05/14 10:58:59;;;;;;;10.50;3.42;;;;;;;20.10;40.25;101114.56;5002789;28;20182;-55
2022/05/14 11:01:46;;;;;;;18.52;4.13;;;;;;;20.16;40.34;101115.81;5008862;28;20061;-58
2022/05/14 11:04:26;;;;;;;12.35;3.38;;;;;;;19.95;40.80;101119.47;5009846;28;20053;-59
2022/05/14 11:06:57;;;;;;;7.57;2.90;;;;;;;20.15;40.60;101106.97;5006722;28;20041;-59
2022/05/14 11:09:49;;;;;;;15.25;3.60;;;;;;;20.26;40.05;101107.78;5000870;28;20046;-60
2022/05/14 11:12:22;;;;;;;8.32;3.08;;;;;;;20.40;40.27;101110.91;4999971;28;20053;-58
2022/05/14 11:14:52;;;;;;;14.05;3.40;;;;;;;20.58;39.49;101120.88;5009073;28;20046;-58
2022/05/14 11:17:26;;;;;;;11.55;3.30;;;;;;;20.80;38.83;101109.00;5001418;28;20066;-59
2022/05/14 11:20:07;;;;;;;8.40;2.80;;;;;;;21.04;39.05;101104.03;5007102;28;20050;-55
2022/05/14 11:22:46;;;;;;;13.32;3.50;;;;;;;21.18;38.52;101100.03;5015549;28;20395;-59
2022/05/14 11:25:23;;;;;;;15.85;4.05;;;;;;;21.23;38.09;101103.09;5009472;28;20060;-58
2022/05/14 11:28:04;;;;;;;22.95;5.30;;;;;;;20.65;38.98;101128.19;5002324;28;20057;-58
2022/05/14 11:30:43;;;;;;;12.73;4.03;;;;;;;20.58;39.06;101121.75;5008902;28;20429;-56
2022/05/14 11:33:20;;;;;;;14.32;3.38;;;;;;;20.17;39.83;101118.38;5013485;28;20069;-58
2022/05/14 11:35:48;;;;;;;13.23;3.97;;;;;;;19.71;40.82;101121.66;5006176;28;20053;-57
2022/05/14 11:38:24;;;;;;;16.48;3.67;;;;;;;19.49;41.48;101133.38;5009322;28;20061;-59
2022/05/14 11:40:57;;;;;;;21.35;3.08;;;;;;;19.55;41.65;101118.66;5007666;28;20069;-59
2022/05/14 11:43:29;;;;;;;15.77;4.28;;;;;;;19.65;41.98;101111.56;5006475;28;20081;-57
2022/05/14 11:46:27;;;;;;;11.73;3.40;;;;;;;20.05;41.15;101119.47;5006852;28;20069;-58
2022/05/14 11:49:06;;;;;;;9.40;3.28;;;;;;;20.45;40.96;101122.00;5008698;28;20811;-59
2022/05/14 11:51:38;;;;;;;15.65;4.07;;;;;;;20.60;40.87;101113.56;5003074;28;20058;-57
2022/05/14 11:54:06;;;;;;;8.98;3.25;;;;;;;20.61;40.75;101124.13;5008651;28;20061;-54